Terminal Aerodrome Forecast
Issued by NWS

Home | Current Version | Previous Version | Graphics & Text | Print | Product List | Glossary On
Versions: 1 2 3 4 5 6 7 8 9 10 11 12 13 14 15 16 17 18 19 20 21 22 23
000
FTUS43 KGRB 281600 AAB
TAFAUW
TAF AMD
KAUW 281609Z 2816/2912 12006KT P6SM OVC008
     FM281700 15007KT P6SM SCT008 OVC028
     FM282100 14008KT P6SM OVC050
     FM290100 12007KT 4SM -SHRA BR OVC025
     FM290500 12004KT 3SM SHRA OVC015 PROB30 2906/2912 1SM TSRA
      BKN009CB=

USA.gov is the U.S. government's official web portal to all federal, state and local government web resources and services.